sensor_id;sensor_type;location;lat;lon;timestamp;P1;durP1;ratioP1;P2;durP2;ratioP2
20657;SDS011;10488;50.846;4.078;2023-04-24T00:00:53;26.90;;;14.63;;
20657;SDS011;10488;50.846;4.078;2023-04-24T00:03:22;33.42;;;16.55;;
20657;SDS011;10488;50.846;4.078;2023-04-24T00:05:48;28.35;;;16.92;;
20657;SDS011;10488;50.846;4.078;2023-04-24T00:08:14;31.73;;;16.10;;
20657;SDS011;10488;50.846;4.078;2023-04-24T00:10:40;33.72;;;16.38;;
20657;SDS011;10488;50.846;4.078;2023-04-24T00:13:06;27.02;;;16.23;;
20657;SDS011;10488;50.846;4.078;2023-04-24T00:15:32;30.85;;;15.20;;
20657;SDS011;10488;50.846;4.078;2023-04-24T00:17:58;26.00;;;15.43;;
20657;SDS011;10488;50.846;4.078;2023-04-24T00:20:23;26.63;;;14.93;;
20657;SDS011;10488;50.846;4.078;2023-04-24T00:22:49;29.77;;;15.65;;
20657;SDS011;10488;50.846;4.078;2023-04-24T00:25:15;29.75;;;16.10;;
20657;SDS011;10488;50.846;4.078;2023-04-24T00:27:41;28.92;;;15.73;;
20657;SDS011;10488;50.846;4.078;2023-04-24T00:30:06;31.00;;;15.75;;
20657;SDS011;10488;50.846;4.078;2023-04-24T00:32:32;23.92;;;15.00;;
20657;SDS011;10488;50.846;4.078;2023-04-24T00:34:58;32.63;;;15.85;;
20657;SDS011;10488;50.846;4.078;2023-04-24T00:37:24;27.52;;;15.68;;
20657;SDS011;10488;50.846;4.078;2023-04-24T00:39:50;24.80;;;15.43;;
20657;SDS011;10488;50.846;4.078;2023-04-24T00:42:15;33.45;;;15.88;;
20657;SDS011;10488;50.846;4.078;2023-04-24T00:44:41;29.25;;;16.45;;
20657;SDS011;10488;50.846;4.078;2023-04-24T00:47:07;30.65;;;15.98;;
20657;SDS011;10488;50.846;4.078;2023-04-24T00:49:33;32.75;;;16.13;;
20657;SDS011;10488;50.846;4.078;2023-04-24T00:51:59;30.95;;;16.15;;
20657;SDS011;10488;50.846;4.078;2023-04-24T00:54:24;28.70;;;15.73;;
20657;SDS011;10488;50.846;4.078;2023-04-24T00:56:50;35.55;;;17.55;;
20657;SDS011;10488;50.846;4.078;2023-04-24T00:59:17;30.15;;;17.20;;
20657;SDS011;10488;50.846;4.078;2023-04-24T01:01:44;24.98;;;15.55;;
20657;SDS011;10488;50.846;4.078;2023-04-24T01:04:11;30.77;;;15.82;;
20657;SDS011;10488;50.846;4.078;2023-04-24T01:06:40;23.75;;;15.07;;
20657;SDS011;10488;50.846;4.078;2023-04-24T01:09:10;29.23;;;16.52;;
20657;SDS011;10488;50.846;4.078;2023-04-24T01:11:37;33.90;;;15.75;;
20657;SDS011;10488;50.846;4.078;2023-04-24T01:14:02;26.85;;;15.70;;
20657;SDS011;10488;50.846;4.078;2023-04-24T01:16:28;28.83;;;17.17;;
20657;SDS011;10488;50.846;4.078;2023-04-24T01:18:54;24.42;;;14.05;;
20657;SDS011;10488;50.846;4.078;2023-04-24T01:21:20;29.25;;;16.05;;
20657;SDS011;10488;50.846;4.078;2023-04-24T01:23:48;21.65;;;14.43;;
20657;SDS011;10488;50.846;4.078;2023-04-24T01:26:15;24.77;;;13.52;;
20657;SDS011;10488;50.846;4.078;2023-04-24T01:28:41;20.88;;;12.13;;
20657;SDS011;10488;50.846;4.078;2023-04-24T01:31:08;21.42;;;11.68;;
20657;SDS011;10488;50.846;4.078;2023-04-24T01:33:33;19.02;;;11.77;;
20657;SDS011;10488;50.846;4.078;2023-04-24T01:35:59;16.90;;;10.98;;
20657;SDS011;10488;50.846;4.078;2023-04-24T01:38:25;18.35;;;10.82;;
20657;SDS011;10488;50.846;4.078;2023-04-24T01:40:51;18.40;;;11.38;;
20657;SDS011;10488;50.846;4.078;2023-04-24T01:43:18;23.70;;;13.05;;
20657;SDS011;10488;50.846;4.078;2023-04-24T01:45:44;19.65;;;12.45;;
20657;SDS011;10488;50.846;4.078;2023-04-24T01:48:11;19.55;;;12.95;;
20657;SDS011;10488;50.846;4.078;2023-04-24T01:50:37;20.08;;;12.75;;
20657;SDS011;10488;50.846;4.078;2023-04-24T01:53:03;23.00;;;12.43;;
20657;SDS011;10488;50.846;4.078;2023-04-24T01:55:28;23.13;;;12.50;;
20657;SDS011;10488;50.846;4.078;2023-04-24T01:57:55;23.50;;;12.25;;
20657;SDS011;10488;50.846;4.078;2023-04-24T02:00:22;26.30;;;12.52;;
20657;SDS011;10488;50.846;4.078;2023-04-24T02:02:47;21.15;;;12.55;;
20657;SDS011;10488;50.846;4.078;2023-04-24T02:05:13;21.95;;;11.30;;
20657;SDS011;10488;50.846;4.078;2023-04-24T02:07:39;19.80;;;12.25;;
20657;SDS011;10488;50.846;4.078;2023-04-24T02:10:05;26.85;;;12.93;;
20657;SDS011;10488;50.846;4.078;2023-04-24T02:12:31;17.88;;;11.52;;
20657;SDS011;10488;50.846;4.078;2023-04-24T02:14:57;24.83;;;12.40;;
20657;SDS011;10488;50.846;4.078;2023-04-24T02:17:22;21.92;;;11.82;;
20657;SDS011;10488;50.846;4.078;2023-04-24T02:19:48;22.95;;;13.43;;
20657;SDS011;10488;50.846;4.078;2023-04-24T02:22:14;20.52;;;12.02;;
20657;SDS011;10488;50.846;4.078;2023-04-24T02:24:39;24.63;;;11.85;;
20657;SDS011;10488;50.846;4.078;2023-04-24T02:27:05;20.33;;;12.25;;
20657;SDS011;10488;50.846;4.078;2023-04-24T02:29:31;20.02;;;12.15;;
20657;SDS011;10488;50.846;4.078;2023-04-24T02:31:57;18.83;;;12.27;;
20657;SDS011;10488;50.846;4.078;2023-04-24T02:34:23;20.17;;;11.25;;
20657;SDS011;10488;50.846;4.078;2023-04-24T02:36:48;20.27;;;11.27;;
20657;SDS011;10488;50.846;4.078;2023-04-24T02:39:14;19.25;;;11.90;;
20657;SDS011;10488;50.846;4.078;2023-04-24T02:41:43;18.20;;;11.75;;
20657;SDS011;10488;50.846;4.078;2023-04-24T02:44:09;21.40;;;12.32;;
20657;SDS011;10488;50.846;4.078;2023-04-24T02:46:35;23.33;;;12.02;;
20657;SDS011;10488;50.846;4.078;2023-04-24T02:49:01;19.83;;;12.10;;
20657;SDS011;10488;50.846;4.078;2023-04-24T02:51:27;16.63;;;10.45;;
20657;SDS011;10488;50.846;4.078;2023-04-24T02:53:53;19.10;;;10.82;;
20657;SDS011;10488;50.846;4.078;2023-04-24T02:56:19;20.20;;;11.27;;
20657;SDS011;10488;50.846;4.078;2023-04-24T02:58:45;18.15;;;11.68;;
20657;SDS011;10488;50.846;4.078;2023-04-24T03:01:10;17.88;;;11.07;;
20657;SDS011;10488;50.846;4.078;2023-04-24T03:03:37;19.77;;;11.65;;
20657;SDS011;10488;50.846;4.078;2023-04-24T03:06:03;19.75;;;12.98;;
20657;SDS011;10488;50.846;4.078;2023-04-24T03:08:30;19.63;;;11.93;;
20657;SDS011;10488;50.846;4.078;2023-04-24T03:10:57;17.65;;;11.00;;
20657;SDS011;10488;50.846;4.078;2023-04-24T03:13:22;19.77;;;12.23;;
20657;SDS011;10488;50.846;4.078;2023-04-24T03:15:48;25.65;;;12.88;;
20657;SDS011;10488;50.846;4.078;2023-04-24T03:18:13;21.77;;;11.75;;
20657;SDS011;10488;50.846;4.078;2023-04-24T03:20:39;18.35;;;11.55;;
20657;SDS011;10488;50.846;4.078;2023-04-24T03:23:05;21.55;;;11.32;;
20657;SDS011;10488;50.846;4.078;2023-04-24T03:25:30;19.35;;;12.55;;
20657;SDS011;10488;50.846;4.078;2023-04-24T03:27:56;19.00;;;11.65;;
20657;SDS011;10488;50.846;4.078;2023-04-24T03:30:22;19.02;;;12.20;;
20657;SDS011;10488;50.846;4.078;2023-04-24T03:32:47;14.43;;;10.30;;
20657;SDS011;10488;50.846;4.078;2023-04-24T03:35:13;15.65;;;10.65;;
20657;SDS011;10488;50.846;4.078;2023-04-24T03:37:39;13.65;;;9.40;;
20657;SDS011;10488;50.846;4.078;2023-04-24T03:40:05;12.55;;;9.30;;
20657;SDS011;10488;50.846;4.078;2023-04-24T03:42:32;13.35;;;8.68;;
20657;SDS011;10488;50.846;4.078;2023-04-24T03:44:57;14.45;;;9.52;;
20657;SDS011;10488;50.846;4.078;2023-04-24T03:47:23;14.77;;;8.73;;
20657;SDS011;10488;50.846;4.078;2023-04-24T03:49:49;12.82;;;9.27;;
20657;SDS011;10488;50.846;4.078;2023-04-24T03:52:15;11.75;;;9.50;;
20657;SDS011;10488;50.846;4.078;2023-04-24T03:54:40;12.32;;;9.55;;
20657;SDS011;10488;50.846;4.078;2023-04-24T03:57:06;13.80;;;9.75;;
20657;SDS011;10488;50.846;4.078;2023-04-24T03:59:32;18.00;;;10.18;;
20657;SDS011;10488;50.846;4.078;2023-04-24T04:01:57;17.00;;;9.73;;
20657;SDS011;10488;50.846;4.078;2023-04-24T04:04:24;15.07;;;9.25;;
20657;SDS011;10488;50.846;4.078;2023-04-24T04:06:50;15.38;;;9.52;;
20657;SDS011;10488;50.846;4.078;2023-04-24T04:09:16;13.55;;;9.60;;
20657;SDS011;10488;50.846;4.078;2023-04-24T04:11:41;14.48;;;10.50;;
20657;SDS011;10488;50.846;4.078;2023-04-24T04:14:07;17.75;;;10.25;;
20657;SDS011;10488;50.846;4.078;2023-04-24T04:16:33;13.43;;;9.80;;
20657;SDS011;10488;50.846;4.078;2023-04-24T04:18:58;12.90;;;9.65;;
20657;SDS011;10488;50.846;4.078;2023-04-24T04:21:24;16.30;;;9.27;;
20657;SDS011;10488;50.846;4.078;2023-04-24T04:23:51;20.38;;;11.10;;
20657;SDS011;10488;50.846;4.078;2023-04-24T04:26:17;20.42;;;10.65;;
20657;SDS011;10488;50.846;4.078;2023-04-24T04:28:44;16.13;;;11.05;;
20657;SDS011;10488;50.846;4.078;2023-04-24T04:31:09;18.95;;;11.35;;
20657;SDS011;10488;50.846;4.078;2023-04-24T04:33:35;21.48;;;12.50;;
20657;SDS011;10488;50.846;4.078;2023-04-24T04:36:03;18.55;;;12.52;;
20657;SDS011;10488;50.846;4.078;2023-04-24T04:38:29;19.27;;;12.77;;
20657;SDS011;10488;50.846;4.078;2023-04-24T04:40:55;23.08;;;12.10;;
20657;SDS011;10488;50.846;4.078;2023-04-24T04:43:22;28.23;;;13.52;;
20657;SDS011;10488;50.846;4.078;2023-04-24T04:45:49;21.42;;;13.85;;
20657;SDS011;10488;50.846;4.078;2023-04-24T04:48:16;24.02;;;13.73;;
20657;SDS011;10488;50.846;4.078;2023-04-24T04:50:42;26.02;;;15.23;;
20657;SDS011;10488;50.846;4.078;2023-04-24T04:53:08;27.90;;;14.73;;
20657;SDS011;10488;50.846;4.078;2023-04-24T04:55:34;28.83;;;16.15;;
20657;SDS011;10488;50.846;4.078;2023-04-24T04:57:59;25.88;;;14.55;;
20657;SDS011;10488;50.846;4.078;2023-04-24T05:00:25;27.13;;;16.35;;
20657;SDS011;10488;50.846;4.078;2023-04-24T05:02:52;28.75;;;15.77;;
20657;SDS011;10488;50.846;4.078;2023-04-24T05:05:18;28.65;;;16.08;;
20657;SDS011;10488;50.846;4.078;2023-04-24T05:07:44;28.35;;;16.35;;
20657;SDS011;10488;50.846;4.078;2023-04-24T05:10:09;23.83;;;14.88;;
20657;SDS011;10488;50.846;4.078;2023-04-24T05:12:36;26.63;;;16.00;;
20657;SDS011;10488;50.846;4.078;2023-04-24T05:15:02;27.05;;;15.35;;
20657;SDS011;10488;50.846;4.078;2023-04-24T05:17:28;25.27;;;15.07;;
20657;SDS011;10488;50.846;4.078;2023-04-24T05:19:54;27.00;;;14.40;;
20657;SDS011;10488;50.846;4.078;2023-04-24T05:22:20;29.85;;;14.35;;
20657;SDS011;10488;50.846;4.078;2023-04-24T05:24:46;23.67;;;14.48;;
20657;SDS011;10488;50.846;4.078;2023-04-24T05:27:12;21.10;;;13.25;;
20657;SDS011;10488;50.846;4.078;2023-04-24T05:29:38;24.08;;;12.88;;
20657;SDS011;10488;50.846;4.078;2023-04-24T05:32:05;22.52;;;13.57;;
20657;SDS011;10488;50.846;4.078;2023-04-24T05:34:31;25.88;;;13.65;;
20657;SDS011;10488;50.846;4.078;2023-04-24T05:36:57;22.90;;;13.45;;
20657;SDS011;10488;50.846;4.078;2023-04-24T05:39:23;31.90;;;13.88;;
20657;SDS011;10488;50.846;4.078;2023-04-24T05:41:50;26.85;;;13.00;;
20657;SDS011;10488;50.846;4.078;2023-04-24T05:44:16;22.77;;;13.55;;
20657;SDS011;10488;50.846;4.078;2023-04-24T05:46:42;24.75;;;13.68;;
20657;SDS011;10488;50.846;4.078;2023-04-24T05:49:07;24.08;;;13.77;;
20657;SDS011;10488;50.846;4.078;2023-04-24T05:51:33;23.40;;;13.00;;
20657;SDS011;10488;50.846;4.078;2023-04-24T05:53:58;27.90;;;12.98;;
20657;SDS011;10488;50.846;4.078;2023-04-24T05:56:24;28.45;;;13.95;;
20657;SDS011;10488;50.846;4.078;2023-04-24T05:58:50;26.30;;;14.38;;
20657;SDS011;10488;50.846;4.078;2023-04-24T06:01:16;29.88;;;14.68;;
20657;SDS011;10488;50.846;4.078;2023-04-24T06:03:41;28.20;;;15.30;;
20657;SDS011;10488;50.846;4.078;2023-04-24T06:06:07;20.90;;;13.52;;
20657;SDS011;10488;50.846;4.078;2023-04-24T06:08:33;31.40;;;14.65;;
20657;SDS011;10488;50.846;4.078;2023-04-24T06:11:00;24.98;;;14.63;;
20657;SDS011;10488;50.846;4.078;2023-04-24T06:13:25;29.02;;;14.73;;
20657;SDS011;10488;50.846;4.078;2023-04-24T06:15:52;35.92;;;17.05;;
20657;SDS011;10488;50.846;4.078;2023-04-24T06:18:18;33.63;;;15.93;;
20657;SDS011;10488;50.846;4.078;2023-04-24T06:20:44;29.42;;;16.42;;
20657;SDS011;10488;50.846;4.078;2023-04-24T06:23:11;29.55;;;14.82;;
20657;SDS011;10488;50.846;4.078;2023-04-24T06:25:37;28.92;;;17.88;;
20657;SDS011;10488;50.846;4.078;2023-04-24T06:28:03;32.75;;;19.00;;
20657;SDS011;10488;50.846;4.078;2023-04-24T06:30:28;32.30;;;17.50;;
20657;SDS011;10488;50.846;4.078;2023-04-24T06:32:54;43.60;;;18.73;;
20657;SDS011;10488;50.846;4.078;2023-04-24T06:35:20;33.75;;;19.15;;
20657;SDS011;10488;50.846;4.078;2023-04-24T06:37:46;31.58;;;18.23;;
20657;SDS011;10488;50.846;4.078;2023-04-24T06:40:12;33.10;;;19.10;;
20657;SDS011;10488;50.846;4.078;2023-04-24T06:42:38;32.25;;;19.13;;
20657;SDS011;10488;50.846;4.078;2023-04-24T06:45:03;34.67;;;19.70;;
20657;SDS011;10488;50.846;4.078;2023-04-24T06:47:30;40.15;;;18.73;;
20657;SDS011;10488;50.846;4.078;2023-04-24T06:49:56;35.70;;;18.67;;
20657;SDS011;10488;50.846;4.078;2023-04-24T06:52:22;31.58;;;17.10;;
20657;SDS011;10488;50.846;4.078;2023-04-24T06:54:47;33.75;;;18.45;;
20657;SDS011;10488;50.846;4.078;2023-04-24T06:57:13;31.33;;;16.42;;
20657;SDS011;10488;50.846;4.078;2023-04-24T06:59:41;36.20;;;16.30;;
20657;SDS011;10488;50.846;4.078;2023-04-24T07:02:07;35.00;;;16.83;;
20657;SDS011;10488;50.846;4.078;2023-04-24T07:04:32;30.55;;;16.42;;
20657;SDS011;10488;50.846;4.078;2023-04-24T07:06:58;29.75;;;16.80;;
20657;SDS011;10488;50.846;4.078;2023-04-24T07:09:25;27.13;;;14.35;;
20657;SDS011;10488;50.846;4.078;2023-04-24T07:11:51;25.75;;;15.70;;
20657;SDS011;10488;50.846;4.078;2023-04-24T07:14:18;33.15;;;16.20;;
20657;SDS011;10488;50.846;4.078;2023-04-24T07:16:44;27.40;;;15.93;;
20657;SDS011;10488;50.846;4.078;2023-04-24T07:19:10;29.50;;;16.02;;
20657;SDS011;10488;50.846;4.078;2023-04-24T07:21:36;28.00;;;16.23;;
20657;SDS011;10488;50.846;4.078;2023-04-24T07:24:02;29.50;;;15.95;;
20657;SDS011;10488;50.846;4.078;2023-04-24T07:26:29;31.17;;;16.27;;
20657;SDS011;10488;50.846;4.078;2023-04-24T07:28:55;27.35;;;14.45;;
20657;SDS011;10488;50.846;4.078;2023-04-24T07:31:21;25.42;;;15.25;;
20657;SDS011;10488;50.846;4.078;2023-04-24T07:33:47;22.58;;;13.43;;
20657;SDS011;10488;50.846;4.078;2023-04-24T07:36:13;21.58;;;13.20;;
20657;SDS011;10488;50.846;4.078;2023-04-24T07:38:46;20.63;;;9.93;;
20657;SDS011;10488;50.846;4.078;2023-04-24T07:41:12;19.63;;;12.52;;
20657;SDS011;10488;50.846;4.078;2023-04-24T07:43:39;22.52;;;10.52;;
20657;SDS011;10488;50.846;4.078;2023-04-24T07:46:05;20.70;;;10.55;;
20657;SDS011;10488;50.846;4.078;2023-04-24T07:48:32;24.30;;;11.35;;
20657;SDS011;10488;50.846;4.078;2023-04-24T07:50:58;26.05;;;11.05;;
20657;SDS011;10488;50.846;4.078;2023-04-24T07:53:23;21.65;;;10.13;;
20657;SDS011;10488;50.846;4.078;2023-04-24T07:55:49;20.85;;;11.13;;
20657;SDS011;10488;50.846;4.078;2023-04-24T07:58:15;27.20;;;10.15;;
20657;SDS011;10488;50.846;4.078;2023-04-24T08:00:41;20.30;;;9.60;;
20657;SDS011;10488;50.846;4.078;2023-04-24T08:03:06;21.23;;;9.82;;
20657;SDS011;10488;50.846;4.078;2023-04-24T08:05:32;16.50;;;8.48;;
20657;SDS011;10488;50.846;4.078;2023-04-24T08:07:58;21.30;;;9.63;;
20657;SDS011;10488;50.846;4.078;2023-04-24T08:10:24;19.20;;;9.25;;
20657;SDS011;10488;50.846;4.078;2023-04-24T08:12:50;19.00;;;9.88;;
20657;SDS011;10488;50.846;4.078;2023-04-24T08:15:16;13.00;;;8.02;;
20657;SDS011;10488;50.846;4.078;2023-04-24T08:17:42;18.35;;;8.57;;
20657;SDS011;10488;50.846;4.078;2023-04-24T08:20:08;17.25;;;7.80;;
20657;SDS011;10488;50.846;4.078;2023-04-24T08:22:38;20.38;;;8.13;;
20657;SDS011;10488;50.846;4.078;2023-04-24T08:25:05;15.43;;;5.90;;
20657;SDS011;10488;50.846;4.078;2023-04-24T08:27:31;9.32;;;5.28;;
20657;SDS011;10488;50.846;4.078;2023-04-24T08:29:57;12.07;;;6.07;;
20657;SDS011;10488;50.846;4.078;2023-04-24T08:32:24;12.63;;;5.20;;
20657;SDS011;10488;50.846;4.078;2023-04-24T08:34:49;12.10;;;5.38;;
20657;SDS011;10488;50.846;4.078;2023-04-24T08:37:17;10.32;;;5.13;;
20657;SDS011;10488;50.846;4.078;2023-04-24T08:39:43;10.15;;;5.68;;
20657;SDS011;10488;50.846;4.078;2023-04-24T08:42:09;11.15;;;5.45;;
20657;SDS011;10488;50.846;4.078;2023-04-24T08:44:37;12.05;;;5.53;;
20657;SDS011;10488;50.846;4.078;2023-04-24T08:47:04;8.70;;;4.88;;
20657;SDS011;10488;50.846;4.078;2023-04-24T08:49:30;13.07;;;4.85;;
20657;SDS011;10488;50.846;4.078;2023-04-24T08:51:56;8.40;;;4.70;;
20657;SDS011;10488;50.846;4.078;2023-04-24T08:54:22;13.73;;;4.32;;
20657;SDS011;10488;50.846;4.078;2023-04-24T08:56:49;11.95;;;4.78;;
20657;SDS011;10488;50.846;4.078;2023-04-24T08:59:18;17.52;;;5.68;;
20657;SDS011;10488;50.846;4.078;2023-04-24T09:01:45;11.85;;;6.22;;
20657;SDS011;10488;50.846;4.078;2023-04-24T09:04:12;11.18;;;5.20;;
20657;SDS011;10488;50.846;4.078;2023-04-24T09:06:40;11.82;;;4.60;;
20657;SDS011;10488;50.846;4.078;2023-04-24T09:09:05;13.55;;;5.45;;
20657;SDS011;10488;50.846;4.078;2023-04-24T09:11:32;16.88;;;6.07;;
20657;SDS011;10488;50.846;4.078;2023-04-24T09:13:58;17.02;;;5.20;;
20657;SDS011;10488;50.846;4.078;2023-04-24T09:16:24;9.35;;;4.97;;
20657;SDS011;10488;50.846;4.078;2023-04-24T09:18:50;12.32;;;4.22;;
20657;SDS011;10488;50.846;4.078;2023-04-24T09:21:16;11.38;;;4.53;;
20657;SDS011;10488;50.846;4.078;2023-04-24T09:23:42;6.78;;;4.00;;
20657;SDS011;10488;50.846;4.078;2023-04-24T09:26:09;12.85;;;4.25;;
20657;SDS011;10488;50.846;4.078;2023-04-24T09:28:36;8.40;;;4.43;;
20657;SDS011;10488;50.846;4.078;2023-04-24T09:31:08;10.68;;;4.93;;
20657;SDS011;10488;50.846;4.078;2023-04-24T09:33:34;9.82;;;4.15;;
20657;SDS011;10488;50.846;4.078;2023-04-24T09:36:00;7.55;;;4.40;;
20657;SDS011;10488;50.846;4.078;2023-04-24T09:38:34;10.27;;;3.50;;
20657;SDS011;10488;50.846;4.078;2023-04-24T09:41:01;8.02;;;4.05;;
20657;SDS011;10488;50.846;4.078;2023-04-24T09:43:30;13.20;;;4.95;;
20657;SDS011;10488;50.846;4.078;2023-04-24T09:45:56;11.13;;;4.90;;
20657;SDS011;10488;50.846;4.078;2023-04-24T09:48:30;7.57;;;4.60;;
20657;SDS011;10488;50.846;4.078;2023-04-24T09:50:57;7.93;;;5.32;;
20657;SDS011;10488;50.846;4.078;2023-04-24T09:53:26;10.90;;;5.60;;
20657;SDS011;10488;50.846;4.078;2023-04-24T09:55:52;14.85;;;5.55;;
20657;SDS011;10488;50.846;4.078;2023-04-24T09:58:24;11.13;;;6.00;;
20657;SDS011;10488;50.846;4.078;2023-04-24T10:00:53;15.23;;;5.78;;
20657;SDS011;10488;50.846;4.078;2023-04-24T10:03:19;12.68;;;6.00;;
20657;SDS011;10488;50.846;4.078;2023-04-24T10:05:46;13.02;;;5.93;;
20657;SDS011;10488;50.846;4.078;2023-04-24T10:08:13;13.20;;;5.07;;
20657;SDS011;10488;50.846;4.078;2023-04-24T10:10:41;15.35;;;5.78;;
20657;SDS011;10488;50.846;4.078;2023-04-24T10:13:11;11.48;;;5.47;;
20657;SDS011;10488;50.846;4.078;2023-04-24T10:15:38;11.07;;;5.72;;
20657;SDS011;10488;50.846;4.078;2023-04-24T10:18:05;12.88;;;5.85;;
20657;SDS011;10488;50.846;4.078;2023-04-24T10:20:31;13.95;;;5.55;;
20657;SDS011;10488;50.846;4.078;2023-04-24T10:22:59;10.85;;;5.20;;
20657;SDS011;10488;50.846;4.078;2023-04-24T10:25:26;14.43;;;5.88;;
20657;SDS011;10488;50.846;4.078;2023-04-24T10:27:54;12.32;;;6.00;;
20657;SDS011;10488;50.846;4.078;2023-04-24T10:30:24;19.60;;;6.25;;
20657;SDS011;10488;50.846;4.078;2023-04-24T10:32:55;15.07;;;5.88;;
20657;SDS011;10488;50.846;4.078;2023-04-24T10:35:21;11.68;;;6.07;;
20657;SDS011;10488;50.846;4.078;2023-04-24T10:40:29;15.48;;;5.72;;
20657;SDS011;10488;50.846;4.078;2023-04-24T10:42:56;9.48;;;5.47;;
20657;SDS011;10488;50.846;4.078;2023-04-24T10:45:23;10.30;;;5.85;;
20657;SDS011;10488;50.846;4.078;2023-04-24T10:47:52;11.82;;;5.43;;
20657;SDS011;10488;50.846;4.078;2023-04-24T10:50:21;15.43;;;5.78;;
20657;SDS011;10488;50.846;4.078;2023-04-24T10:52:47;8.90;;;5.63;;
20657;SDS011;10488;50.846;4.078;2023-04-24T10:55:16;11.02;;;5.32;;
20657;SDS011;10488;50.846;4.078;2023-04-24T10:58:02;10.00;;;5.90;;
20657;SDS011;10488;50.846;4.078;2023-04-24T11:00:29;8.27;;;5.85;;
20657;SDS011;10488;50.846;4.078;2023-04-24T11:02:55;8.32;;;5.60;;
20657;SDS011;10488;50.846;4.078;2023-04-24T11:05:22;8.40;;;5.72;;
20657;SDS011;10488;50.846;4.078;2023-04-24T11:08:14;13.05;;;5.50;;
20657;SDS011;10488;50.846;4.078;2023-04-24T11:10:45;8.70;;;6.07;;
20657;SDS011;10488;50.846;4.078;2023-04-24T11:13:15;17.00;;;6.35;;
20657;SDS011;10488;50.846;4.078;2023-04-24T11:15:42;13.10;;;7.28;;
20657;SDS011;10488;50.846;4.078;2023-04-24T11:18:12;11.45;;;6.38;;
20657;SDS011;10488;50.846;4.078;2023-04-24T11:20:44;12.82;;;6.57;;
20657;SDS011;10488;50.846;4.078;2023-04-24T11:23:11;12.88;;;7.72;;
20657;SDS011;10488;50.846;4.078;2023-04-24T11:25:38;10.70;;;6.90;;
20657;SDS011;10488;50.846;4.078;2023-04-24T11:28:04;12.15;;;7.07;;
20657;SDS011;10488;50.846;4.078;2023-04-24T11:30:31;10.73;;;6.88;;
20657;SDS011;10488;50.846;4.078;2023-04-24T11:33:05;11.80;;;6.28;;
20657;SDS011;10488;50.846;4.078;2023-04-24T11:35:34;13.85;;;6.70;;
20657;SDS011;10488;50.846;4.078;2023-04-24T11:38:04;9.02;;;5.75;;
20657;SDS011;10488;50.846;4.078;2023-04-24T11:40:30;11.52;;;6.38;;
20657;SDS011;10488;50.846;4.078;2023-04-24T11:42:56;8.68;;;5.95;;
20657;SDS011;10488;50.846;4.078;2023-04-24T11:45:25;13.95;;;5.90;;
20657;SDS011;10488;50.846;4.078;2023-04-24T11:47:55;11.35;;;6.65;;
20657;SDS011;10488;50.846;4.078;2023-04-24T11:50:23;10.73;;;6.38;;
20657;SDS011;10488;50.846;4.078;2023-04-24T11:52:53;11.65;;;7.35;;
20657;SDS011;10488;50.846;4.078;2023-04-24T11:57:46;12.00;;;7.25;;
20657;SDS011;10488;50.846;4.078;2023-04-24T12:02:45;11.68;;;6.93;;
20657;SDS011;10488;50.846;4.078;2023-04-24T12:05:25;12.40;;;7.75;;
20657;SDS011;10488;50.846;4.078;2023-04-24T12:07:52;11.50;;;7.22;;
20657;SDS011;10488;50.846;4.078;2023-04-24T12:10:21;10.63;;;6.85;;
20657;SDS011;10488;50.846;4.078;2023-04-24T12:12:49;13.23;;;6.82;;
20657;SDS011;10488;50.846;4.078;2023-04-24T12:15:16;11.07;;;7.00;;
20657;SDS011;10488;50.846;4.078;2023-04-24T12:17:43;9.05;;;6.68;;
20657;SDS011;10488;50.846;4.078;2023-04-24T12:20:10;11.43;;;6.32;;
20657;SDS011;10488;50.846;4.078;2023-04-24T12:25:23;11.98;;;5.13;;
20657;SDS011;10488;50.846;4.078;2023-04-24T12:28:14;12.65;;;6.53;;
20657;SDS011;10488;50.846;4.078;2023-04-24T12:30:43;9.48;;;5.78;;
20657;SDS011;10488;50.846;4.078;2023-04-24T12:33:17;7.93;;;5.13;;
20657;SDS011;10488;50.846;4.078;2023-04-24T12:35:43;9.10;;;5.07;;
20657;SDS011;10488;50.846;4.078;2023-04-24T12:38:10;6.05;;;4.75;;
20657;SDS011;10488;50.846;4.078;2023-04-24T12:40:42;9.80;;;5.38;;
20657;SDS011;10488;50.846;4.078;2023-04-24T12:43:15;7.35;;;4.47;;
20657;SDS011;10488;50.846;4.078;2023-04-24T12:45:44;6.45;;;5.03;;
20657;SDS011;10488;50.846;4.078;2023-04-24T12:48:11;8.52;;;4.63;;
20657;SDS011;10488;50.846;4.078;2023-04-24T12:50:37;10.32;;;4.60;;
20657;SDS011;10488;50.846;4.078;2023-04-24T12:53:03;6.97;;;4.15;;
20657;SDS011;10488;50.846;4.078;2023-04-24T12:55:29;7.38;;;3.92;;
20657;SDS011;10488;50.846;4.078;2023-04-24T12:57:55;6.68;;;4.07;;
20657;SDS011;10488;50.846;4.078;2023-04-24T13:00:21;7.00;;;4.00;;
20657;SDS011;10488;50.846;4.078;2023-04-24T13:02:47;6.80;;;3.92;;
20657;SDS011;10488;50.846;4.078;2023-04-24T13:05:13;7.50;;;3.97;;
20657;SDS011;10488;50.846;4.078;2023-04-24T13:07:39;11.75;;;4.32;;
20657;SDS011;10488;50.846;4.078;2023-04-24T13:10:05;8.48;;;3.70;;
20657;SDS011;10488;50.846;4.078;2023-04-24T13:12:32;7.88;;;3.50;;
20657;SDS011;10488;50.846;4.078;2023-04-24T13:14:57;6.80;;;3.78;;
20657;SDS011;10488;50.846;4.078;2023-04-24T13:17:24;6.03;;;4.45;;
20657;SDS011;10488;50.846;4.078;2023-04-24T13:19:50;6.43;;;3.13;;
20657;SDS011;10488;50.846;4.078;2023-04-24T13:22:16;5.60;;;2.85;;
20657;SDS011;10488;50.846;4.078;2023-04-24T13:24:46;6.28;;;4.10;;
20657;SDS011;10488;50.846;4.078;2023-04-24T13:27:13;7.80;;;3.63;;
20657;SDS011;10488;50.846;4.078;2023-04-24T13:29:40;7.40;;;2.85;;
20657;SDS011;10488;50.846;4.078;2023-04-24T13:32:06;5.10;;;3.22;;
20657;SDS011;10488;50.846;4.078;2023-04-24T13:34:32;6.93;;;3.47;;
20657;SDS011;10488;50.846;4.078;2023-04-24T13:36:59;7.90;;;2.92;;
20657;SDS011;10488;50.846;4.078;2023-04-24T13:39:25;4.93;;;2.92;;
20657;SDS011;10488;50.846;4.078;2023-04-24T13:41:51;6.13;;;3.20;;
20657;SDS011;10488;50.846;4.078;2023-04-24T13:44:18;4.95;;;2.20;;
20657;SDS011;10488;50.846;4.078;2023-04-24T13:46:46;6.43;;;2.97;;
20657;SDS011;10488;50.846;4.078;2023-04-24T13:49:13;5.13;;;2.20;;
20657;SDS011;10488;50.846;4.078;2023-04-24T13:51:39;4.78;;;2.55;;
20657;SDS011;10488;50.846;4.078;2023-04-24T13:54:06;7.05;;;3.10;;
20657;SDS011;10488;50.846;4.078;2023-04-24T13:56:31;7.63;;;2.83;;
20657;SDS011;10488;50.846;4.078;2023-04-24T13:58:57;5.68;;;2.28;;
20657;SDS011;10488;50.846;4.078;2023-04-24T14:01:23;8.82;;;4.90;;
20657;SDS011;10488;50.846;4.078;2023-04-24T14:03:53;4.35;;;2.20;;
20657;SDS011;10488;50.846;4.078;2023-04-24T14:06:20;14.43;;;7.30;;
20657;SDS011;10488;50.846;4.078;2023-04-24T14:08:46;4.32;;;2.08;;
20657;SDS011;10488;50.846;4.078;2023-04-24T14:11:13;4.20;;;1.88;;
20657;SDS011;10488;50.846;4.078;2023-04-24T14:13:39;5.65;;;2.20;;
20657;SDS011;10488;50.846;4.078;2023-04-24T14:16:06;4.90;;;2.65;;
20657;SDS011;10488;50.846;4.078;2023-04-24T14:18:31;4.78;;;1.77;;
20657;SDS011;10488;50.846;4.078;2023-04-24T14:20:57;5.10;;;2.53;;
20657;SDS011;10488;50.846;4.078;2023-04-24T14:23:24;7.10;;;3.00;;
20657;SDS011;10488;50.846;4.078;2023-04-24T14:25:49;4.63;;;2.70;;
20657;SDS011;10488;50.846;4.078;2023-04-24T14:28:20;5.72;;;2.58;;
20657;SDS011;10488;50.846;4.078;2023-04-24T14:30:47;5.60;;;2.38;;
20657;SDS011;10488;50.846;4.078;2023-04-24T14:33:13;6.65;;;2.58;;
20657;SDS011;10488;50.846;4.078;2023-04-24T14:35:42;6.28;;;3.15;;
20657;SDS011;10488;50.846;4.078;2023-04-24T14:38:08;6.18;;;3.28;;